Nekoosa, Wisconsin
Current Conditions -  °F | °C
As of 7:54 AM on Thursday 30 Oct 2014 (Local Time) from KISW Reporting Station
Broken Clouds Broken Clouds  
Wind Chill: 33°   Ceiling: 11000
Heat Index: 33°   Visibility: 10mi
Dew Point: 31°   Wind: 3mph
Humidity: 92%   Direction: 230°SW
Pressure: 30.09"   Gusts: NA
Location:  44.31°N, 89.9°W
Report Text: KISW 301254Z AUTO 23003KT 10SM BKN110 01/M01 A3009 RMK AO2 SLP201 T00061006
Loading
Personal Weather Stations






























Interactive Weather Map
Tropical Storm Tracking
New forecast layout! Learn more

10-Day Weather Forecast

Advertisements
Track Severe Weather on mobile